Time;durP1;ratioP1;P1;durP2;ratioP2;P2;SDS_P1;SDS_P2;PMS_P1;PMS_P2;Temp;Humidity;BMP_temperature;BMP_pressure;BME280_temperature;BME280_humidity;BME280_pressure;Samples;Min_cycle;Max_cycle;Signal;HPM_P1;HPM_P2
2023/09/04 00:01:28;;;;;;;3.70;3.50;;;15.40;99.90;;;;;;5240629;28;20183;-47
2023/09/04 00:03:59;;;;;;;3.33;3.07;;;15.30;99.90;;;;;;5240582;28;20263;-45
2023/09/04 00:06:30;;;;;;;2.83;2.70;;;15.50;99.90;;;;;;5241060;28;20190;-45
2023/09/04 00:09:01;;;;;;;4.60;2.93;;;15.30;99.90;;;;;;5239030;28;20215;-44
2023/09/04 00:11:32;;;;;;;2.63;2.53;;;15.30;99.90;;;;;;5246203;28;20532;-45
2023/09/04 00:14:03;;;;;;;9.40;3.03;;;15.30;99.90;;;;;;5241542;28;20447;-44
2023/09/04 00:16:33;;;;;;;3.37;3.17;;;15.30;99.90;;;;;;5236050;28;20278;-43
2023/09/04 00:19:04;;;;;;;5.60;2.83;;;15.30;99.90;;;;;;5241945;28;20229;-45
2023/09/04 00:21:34;;;;;;;3.33;2.70;;;15.20;99.90;;;;;;5245480;28;20194;-44
2023/09/04 00:24:05;;;;;;;4.33;2.80;;;15.20;99.90;;;;;;5244203;28;20194;-46
2023/09/04 00:26:36;;;;;;;3.30;3.07;;;15.20;99.90;;;;;;5224912;28;20621;-45
2023/09/04 00:29:06;;;;;;;3.97;2.50;;;15.20;99.90;;;;;;5235375;28;20242;-44
2023/09/04 00:31:37;;;;;;;4.80;2.47;;;15.30;99.90;;;;;;5241933;28;20546;-45
2023/09/04 00:34:08;;;;;;;2.83;2.63;;;15.20;99.90;;;;;;5222011;28;20186;-44
2023/09/04 00:36:38;;;;;;;7.30;2.50;;;15.20;99.90;;;;;;5245628;28;20235;-44
2023/09/04 00:39:09;;;;;;;3.27;2.97;;;15.20;99.90;;;;;;5242196;28;20312;-44
2023/09/04 00:41:40;;;;;;;3.10;2.57;;;15.20;99.90;;;;;;5247277;28;20179;-46
2023/09/04 00:44:10;;;;;;;3.93;3.40;;;15.20;99.90;;;;;;5232246;28;20650;-44
2023/09/04 00:46:42;;;;;;;3.60;3.13;;;15.10;99.90;;;;;;5245063;28;20447;-43
2023/09/04 00:49:14;;;;;;;3.57;3.27;;;15.10;99.90;;;;;;5240811;28;20213;-44
2023/09/04 00:51:45;;;;;;;10.17;3.40;;;15.10;99.90;;;;;;5239317;28;20503;-44
2023/09/04 00:54:16;;;;;;;3.03;2.67;;;15.10;99.90;;;;;;5242738;28;20919;-43
2023/09/04 00:56:51;;;;;;;2.60;2.50;;;15.00;99.90;;;;;;5241065;28;20499;-43
2023/09/04 00:59:24;;;;;;;3.07;2.77;;;15.00;99.90;;;;;;5233964;28;20475;-46
2023/09/04 01:01:58;;;;;;;6.00;3.60;;;15.00;99.90;;;;;;5239577;28;20444;-46
2023/09/04 01:04:29;;;;;;;3.67;3.33;;;15.00;99.90;;;;;;5216592;28;20464;-45
2023/09/04 01:06:59;;;;;;;3.67;3.30;;;15.00;99.90;;;;;;5237755;28;20473;-46
2023/09/04 01:09:31;;;;;;;4.60;3.27;;;15.00;99.90;;;;;;5242101;28;20647;-45
2023/09/04 01:12:09;;;;;;;3.00;2.73;;;15.00;99.90;;;;;;5237036;28;20437;-47
2023/09/04 01:14:45;;;;;;;2.97;2.77;;;15.00;99.90;;;;;;5245492;28;20261;-46
2023/09/04 01:17:16;;;;;;;4.00;3.00;;;14.90;99.90;;;;;;5234311;28;20451;-45
2023/09/04 01:19:47;;;;;;;3.60;2.83;;;14.90;99.90;;;;;;5233072;28;20980;-47
2023/09/04 01:22:18;;;;;;;2.47;2.33;;;14.90;99.90;;;;;;5235323;28;20440;-45
2023/09/04 01:24:49;;;;;;;3.30;3.00;;;14.90;99.90;;;;;;5235977;28;20650;-46
2023/09/04 01:27:27;;;;;;;3.60;3.30;;;14.80;99.90;;;;;;5227180;28;20193;-47
2023/09/04 01:30:12;;;;;;;4.73;3.00;;;14.80;99.90;;;;;;5238479;28;20967;-46
2023/09/04 01:33:00;;;;;;;2.80;2.60;;;14.80;99.90;;;;;;5239253;28;20467;-46
2023/09/04 01:35:31;;;;;;;3.13;2.93;;;14.70;99.90;;;;;;5230257;28;21010;-45
2023/09/04 01:38:03;;;;;;;4.40;2.77;;;14.70;99.90;;;;;;5237086;28;20455;-46
2023/09/04 01:40:35;;;;;;;3.43;3.23;;;14.70;99.90;;;;;;5240113;28;20464;-46
2023/09/04 01:43:05;;;;;;;6.20;2.73;;;14.70;99.90;;;;;;5238580;28;20552;-46
2023/09/04 01:45:36;;;;;;;3.60;3.03;;;14.70;99.90;;;;;;5234010;28;20567;-44
2023/09/04 01:48:07;;;;;;;3.23;3.03;;;14.70;99.90;;;;;;5239689;28;20262;-45
2023/09/04 01:50:37;;;;;;;4.07;3.37;;;14.60;99.90;;;;;;5233857;28;20210;-45
2023/09/04 01:53:08;;;;;;;3.20;3.00;;;14.60;99.90;;;;;;5243730;28;20434;-46
2023/09/04 01:55:39;;;;;;;4.90;3.33;;;14.60;99.90;;;;;;5237348;28;20215;-45
2023/09/04 01:58:09;;;;;;;3.50;3.30;;;14.60;99.90;;;;;;5235931;28;20671;-45
2023/09/04 02:00:40;;;;;;;5.73;3.57;;;14.50;99.90;;;;;;5234722;28;20278;-45
2023/09/04 02:03:10;;;;;;;4.57;2.70;;;14.50;99.90;;;;;;5238504;28;20194;-45
2023/09/04 02:05:42;;;;;;;5.00;3.37;;;14.50;99.90;;;;;;5243620;28;20183;-45
2023/09/04 02:08:13;;;;;;;9.63;3.10;;;14.50;99.90;;;;;;5241177;28;20198;-46
2023/09/04 02:10:44;;;;;;;3.17;2.97;;;14.50;99.90;;;;;;5238503;28;20801;-46
2023/09/04 02:13:14;;;;;;;3.37;3.27;;;14.50;99.90;;;;;;5239575;28;20209;-46
2023/09/04 02:15:45;;;;;;;3.07;2.87;;;14.40;99.90;;;;;;5231726;28;20178;-45
2023/09/04 02:18:16;;;;;;;3.80;3.50;;;14.40;99.90;;;;;;5243230;28;20209;-46
2023/09/04 02:20:47;;;;;;;3.43;3.23;;;14.40;99.90;;;;;;5240185;28;20175;-46
2023/09/04 02:23:17;;;;;;;3.73;3.37;;;14.40;99.90;;;;;;5242854;28;20182;-46
2023/09/04 02:25:48;;;;;;;5.57;3.27;;;14.40;99.90;;;;;;5241689;28;20481;-46
2023/09/04 02:28:19;;;;;;;3.90;3.17;;;14.40;99.90;;;;;;5232979;28;20209;-46
2023/09/04 02:30:50;;;;;;;3.83;3.53;;;14.40;99.90;;;;;;5216786;28;20197;-46
2023/09/04 02:33:21;;;;;;;4.03;3.20;;;14.40;99.90;;;;;;5239847;28;20186;-45
2023/09/04 02:35:56;;;;;;;3.50;3.20;;;14.40;99.90;;;;;;5230697;28;20445;-46
2023/09/04 02:38:27;;;;;;;2.90;2.80;;;14.40;99.90;;;;;;5242366;28;20516;-46
2023/09/04 02:40:57;;;;;;;4.17;3.57;;;14.30;99.90;;;;;;5237576;28;20432;-46
2023/09/04 02:43:28;;;;;;;3.37;3.07;;;14.30;99.90;;;;;;5239165;28;20178;-46
2023/09/04 02:45:59;;;;;;;4.47;4.07;;;14.30;99.90;;;;;;5236782;28;20186;-45
2023/09/04 02:48:29;;;;;;;5.00;3.47;;;14.30;99.90;;;;;;5246593;28;20207;-45
2023/09/04 02:51:00;;;;;;;3.87;3.60;;;14.30;99.90;;;;;;5236653;28;20194;-45
2023/09/04 02:53:32;;;;;;;5.03;3.20;;;14.30;99.90;;;;;;5239342;28;20210;-46
2023/09/04 02:56:03;;;;;;;2.93;2.83;;;14.20;99.90;;;;;;5240493;28;20198;-47
2023/09/04 02:58:33;;;;;;;3.77;3.47;;;14.20;99.90;;;;;;5241060;28;20519;-45
2023/09/04 03:01:04;;;;;;;3.27;3.07;;;14.30;99.90;;;;;;5237137;28;20198;-46
2023/09/04 03:03:36;;;;;;;4.07;3.87;;;14.20;99.90;;;;;;5255829;28;20193;-45
2023/09/04 03:06:08;;;;;;;5.67;4.17;;;14.20;99.90;;;;;;5242941;28;20247;-45
2023/09/04 03:08:39;;;;;;;3.70;3.50;;;14.20;99.90;;;;;;5227778;28;20517;-46
2023/09/04 03:11:10;;;;;;;3.70;3.40;;;14.20;99.90;;;;;;5234374;28;20827;-45
2023/09/04 03:13:41;;;;;;;3.70;3.40;;;14.20;99.90;;;;;;5244710;28;20242;-46
2023/09/04 03:16:11;;;;;;;3.77;3.20;;;14.20;99.90;;;;;;5227041;28;20525;-46
2023/09/04 03:18:42;;;;;;;5.33;3.30;;;14.20;99.90;;;;;;5233288;28;20214;-46
2023/09/04 03:21:13;;;;;;;4.10;3.53;;;14.20;99.90;;;;;;5245347;28;20186;-44
2023/09/04 03:23:46;;;;;;;3.80;3.50;;;14.20;99.90;;;;;;5243940;28;20186;-46
2023/09/04 03:26:17;;;;;;;4.20;3.60;;;14.10;99.90;;;;;;5242002;28;20448;-46
2023/09/04 03:28:47;;;;;;;4.13;3.73;;;14.10;99.90;;;;;;5238085;28;20471;-45
2023/09/04 03:31:18;;;;;;;3.97;3.63;;;14.20;99.90;;;;;;5241659;28;20440;-47
2023/09/04 03:33:49;;;;;;;4.93;3.70;;;14.10;99.90;;;;;;5234790;28;20498;-46
2023/09/04 03:36:19;;;;;;;4.50;4.20;;;14.10;99.90;;;;;;5240592;28;20276;-47
2023/09/04 03:38:50;;;;;;;3.93;3.73;;;14.10;99.90;;;;;;5237400;28;20293;-45
2023/09/04 03:41:21;;;;;;;3.43;3.30;;;14.10;99.90;;;;;;5245339;28;20186;-47
2023/09/04 03:43:51;;;;;;;6.37;3.73;;;14.10;99.90;;;;;;5240130;28;20185;-45
2023/09/04 03:46:22;;;;;;;5.80;3.87;;;14.10;99.90;;;;;;5237206;28;20182;-46
2023/09/04 03:48:52;;;;;;;4.13;3.83;;;14.10;99.90;;;;;;5237315;28;20797;-46
2023/09/04 03:51:23;;;;;;;5.20;3.90;;;14.10;99.90;;;;;;5244850;28;20308;-45
2023/09/04 03:53:54;;;;;;;6.30;4.00;;;14.00;99.90;;;;;;5242033;28;20175;-46
2023/09/04 03:56:24;;;;;;;5.83;3.50;;;14.00;99.90;;;;;;5244944;28;20182;-45
2023/09/04 03:58:56;;;;;;;3.20;3.00;;;14.00;99.90;;;;;;5226588;28;20689;-47
2023/09/04 04:01:28;;;;;;;3.80;3.60;;;13.90;99.90;;;;;;5241968;28;20190;-46
2023/09/04 04:04:00;;;;;;;4.03;3.70;;;13.90;99.90;;;;;;5240569;28;20800;-46
2023/09/04 04:06:30;;;;;;;4.67;4.07;;;13.90;99.90;;;;;;5241683;28;20450;-45
2023/09/04 04:09:03;;;;;;;10.67;4.23;;;13.90;99.90;;;;;;5239356;28;21140;-46
2023/09/04 04:11:36;;;;;;;5.17;3.63;;;13.90;99.90;;;;;;5242695;28;20171;-45
2023/09/04 04:14:07;;;;;;;7.40;3.90;;;13.90;99.90;;;;;;5238387;28;20925;-46
2023/09/04 04:16:38;;;;;;;5.37;4.37;;;13.90;99.90;;;;;;5242674;28;20429;-45
2023/09/04 04:19:08;;;;;;;4.23;3.93;;;14.00;99.90;;;;;;5232574;28;20670;-46
2023/09/04 04:21:40;;;;;;;4.07;3.67;;;14.00;99.90;;;;;;5244195;28;20214;-45
2023/09/04 04:24:11;;;;;;;5.80;4.43;;;14.00;99.90;;;;;;5234609;28;20183;-45
2023/09/04 04:26:43;;;;;;;4.37;4.13;;;14.10;99.90;;;;;;5238930;28;20444;-46
2023/09/04 04:29:13;;;;;;;4.10;3.80;;;14.10;99.90;;;;;;5240226;28;20209;-45
2023/09/04 04:31:44;;;;;;;5.87;5.30;;;14.10;99.90;;;;;;5237856;28;20440;-46
2023/09/04 04:34:15;;;;;;;6.13;4.60;;;14.10;99.90;;;;;;5248933;28;20311;-45
2023/09/04 04:36:46;;;;;;;4.47;4.03;;;14.10;99.90;;;;;;5239252;28;20181;-46
2023/09/04 04:39:17;;;;;;;4.87;4.27;;;14.20;99.90;;;;;;5244707;28;20210;-45
2023/09/04 04:41:50;;;;;;;4.40;3.60;;;14.20;99.90;;;;;;5235578;28;20437;-45
2023/09/04 04:44:21;;;;;;;4.17;3.93;;;14.20;99.90;;;;;;5238450;28;20667;-46
2023/09/04 04:46:51;;;;;;;7.37;4.47;;;14.20;99.90;;;;;;5242065;28;20437;-46
2023/09/04 04:49:23;;;;;;;4.30;3.90;;;14.20;99.90;;;;;;5237060;28;20202;-44
2023/09/04 04:51:54;;;;;;;3.67;3.57;;;14.30;99.90;;;;;;5239322;28;20193;-45
2023/09/04 04:54:25;;;;;;;4.27;3.93;;;14.30;99.90;;;;;;5240183;28;20436;-45
2023/09/04 04:56:55;;;;;;;4.53;4.10;;;14.30;99.90;;;;;;5242313;28;20777;-47
2023/09/04 04:59:26;;;;;;;5.83;4.90;;;14.30;99.90;;;;;;5236992;28;20250;-45
2023/09/04 05:02:00;;;;;;;4.50;4.10;;;14.30;99.90;;;;;;5233859;28;20214;-45
2023/09/04 05:04:33;;;;;;;5.30;4.00;;;14.30;99.90;;;;;;5239545;28;20190;-46
2023/09/04 05:07:04;;;;;;;4.27;3.90;;;14.30;99.90;;;;;;5239849;28;20444;-46
2023/09/04 05:09:35;;;;;;;3.00;2.70;;;14.50;99.90;;;;;;5222439;28;20469;-46
2023/09/04 05:12:09;;;;;;;5.10;3.63;;;14.50;99.90;;;;;;5233368;28;20440;-46
2023/09/04 05:14:39;;;;;;;13.00;4.93;;;14.50;99.90;;;;;;5239253;28;20486;-44
2023/09/04 05:17:10;;;;;;;4.20;4.00;;;14.60;99.90;;;;;;5232804;28;20440;-45
2023/09/04 05:19:41;;;;;;;4.97;4.50;;;14.70;99.90;;;;;;5232021;28;20209;-45
2023/09/04 05:22:11;;;;;;;4.90;4.37;;;14.80;99.90;;;;;;5234142;28;20238;-45
2023/09/04 05:24:42;;;;;;;4.57;3.50;;;14.90;99.90;;;;;;5238339;28;20266;-45
2023/09/04 05:27:13;;;;;;;3.97;3.70;;;14.90;99.90;;;;;;5234297;28;20225;-44
2023/09/04 05:29:43;;;;;;;5.60;4.73;;;15.20;99.90;;;;;;5232455;28;20464;-44
2023/09/04 05:32:14;;;;;;;4.10;3.87;;;15.40;99.90;;;;;;5237051;28;20186;-46
2023/09/04 05:34:45;;;;;;;4.77;4.10;;;15.50;99.90;;;;;;5234776;28;20217;-46
2023/09/04 05:37:15;;;;;;;4.10;3.83;;;15.70;99.90;;;;;;5234065;28;21392;-46
2023/09/04 05:39:46;;;;;;;5.43;4.40;;;15.80;99.90;;;;;;5236516;28;20202;-46
2023/09/04 05:42:17;;;;;;;6.10;3.63;;;15.80;99.90;;;;;;5237991;28;20201;-46
2023/09/04 05:44:48;;;;;;;6.03;4.70;;;15.80;99.90;;;;;;5235194;28;20187;-46
2023/09/04 05:47:18;;;;;;;4.90;4.07;;;15.90;99.90;;;;;;5236773;28;20655;-46
2023/09/04 05:49:49;;;;;;;5.00;4.60;;;15.90;99.90;;;;;;5235776;28;20218;-46
2023/09/04 05:52:19;;;;;;;5.20;4.37;;;16.00;99.90;;;;;;5231011;28;20321;-46
2023/09/04 05:54:50;;;;;;;6.23;4.00;;;17.40;99.90;;;;;;5232403;28;20186;-47
2023/09/04 05:57:21;;;;;;;3.50;3.23;;;20.50;99.90;;;;;;5242893;28;20190;-46
2023/09/04 05:59:52;;;;;;;4.17;3.40;;;23.60;99.90;;;;;;5233278;28;20214;-45
2023/09/04 06:02:22;;;;;;;3.17;2.80;;;26.10;95.60;;;;;;5234856;28;20194;-46
2023/09/04 06:04:53;;;;;;;3.27;3.00;;;28.00;81.00;;;;;;5235444;28;20776;-45
2023/09/04 06:07:24;;;;;;;2.60;2.50;;;29.40;68.00;;;;;;5237597;28;20630;-44
2023/09/04 06:09:55;;;;;;;2.83;2.60;;;30.50;59.00;;;;;;5227995;28;20468;-46
2023/09/04 06:12:25;;;;;;;2.90;2.70;;;31.40;54.90;;;;;;5238667;28;20190;-47
2023/09/04 06:14:56;;;;;;;7.80;2.90;;;32.00;51.80;;;;;;5229849;28;20182;-47
2023/09/04 06:17:27;;;;;;;5.03;3.00;;;32.60;49.20;;;;;;5237067;28;20266;-47
2023/09/04 06:19:57;;;;;;;3.90;3.60;;;33.00;47.40;;;;;;5237200;28;20206;-46
2023/09/04 06:22:28;;;;;;;8.53;3.37;;;33.50;45.90;;;;;;5233358;28;20182;-48
2023/09/04 06:24:58;;;;;;;7.40;2.77;;;33.90;44.10;;;;;;5220395;28;20583;-46
2023/09/04 06:27:29;;;;;;;2.50;2.30;;;34.40;44.00;;;;;;5235600;28;20186;-50
2023/09/04 06:30:00;;;;;;;4.47;3.10;;;34.80;42.20;;;;;;5235091;28;20222;-47
2023/09/04 06:32:31;;;;;;;7.80;3.37;;;35.00;40.80;;;;;;5233042;28;20196;-47
2023/09/04 06:35:01;;;;;;;2.90;2.80;;;35.20;40.50;;;;;;5235663;28;20186;-44
2023/09/04 06:37:34;;;;;;;2.40;2.30;;;35.50;40.10;;;;;;5222340;28;20190;-47
2023/09/04 06:40:06;;;;;;;4.80;2.50;;;35.80;38.90;;;;;;5230934;28;20740;-44
2023/09/04 06:42:36;;;;;;;5.43;3.27;;;35.90;38.80;;;;;;5231729;28;20190;-47
2023/09/04 06:45:07;;;;;;;2.97;2.77;;;36.00;38.50;;;;;;5223912;28;20251;-46
2023/09/04 06:47:38;;;;;;;3.17;3.00;;;36.20;37.90;;;;;;5226134;28;21462;-44
2023/09/04 06:50:09;;;;;;;6.30;2.60;;;36.40;37.50;;;;;;5229192;28;20296;-45
2023/09/04 06:52:40;;;;;;;4.87;2.20;;;36.80;36.80;;;;;;5233304;28;20179;-46
2023/09/04 06:55:10;;;;;;;6.43;3.00;;;37.20;36.10;;;;;;5229448;28;20642;-45
2023/09/04 06:57:41;;;;;;;8.23;3.30;;;37.20;35.60;;;;;;5230670;28;20204;-45
2023/09/04 07:00:13;;;;;;;3.23;3.03;;;37.20;35.70;;;;;;5228536;28;20229;-45
2023/09/04 07:02:43;;;;;;;2.97;2.67;;;37.10;35.30;;;;;;5223929;28;20676;-48
2023/09/04 07:05:15;;;;;;;3.30;2.90;;;36.50;35.80;;;;;;5232829;28;20193;-44
2023/09/04 07:07:47;;;;;;;4.43;3.50;;;36.60;35.90;;;;;;5238429;28;20231;-46
2023/09/04 07:10:18;;;;;;;5.67;3.43;;;37.00;35.10;;;;;;5231243;28;20256;-47
2023/09/04 07:12:50;;;;;;;16.23;3.90;;;36.80;35.50;;;;;;5234623;28;20178;-45
2023/09/04 07:15:21;;;;;;;3.80;3.57;;;37.30;35.20;;;;;;5234567;28;20213;-48
2023/09/04 07:17:52;;;;;;;2.80;2.60;;;37.30;34.40;;;;;;5237360;28;20181;-45
2023/09/04 07:20:22;;;;;;;3.43;2.83;;;37.20;35.10;;;;;;5238200;28;20178;-46
2023/09/04 07:22:53;;;;;;;3.88;3.47;;;37.70;34.30;;;;;;5243929;28;20181;-46
2023/09/04 07:25:23;;;;;;;5.13;2.90;;;38.20;33.40;;;;;;5231654;28;20189;-45
2023/09/04 07:27:55;;;;;;;6.38;4.15;;;38.20;33.40;;;;;;5246122;28;20271;-46
2023/09/04 07:30:25;;;;;;;6.28;3.45;;;38.10;33.10;;;;;;5238720;28;20205;-48
2023/09/04 07:32:56;;;;;;;6.93;2.70;;;38.30;33.10;;;;;;5242522;28;20179;-46
2023/09/04 07:35:28;;;;;;;8.48;2.85;;;38.40;32.70;;;;;;5248030;28;20185;-46
2023/09/04 07:38:00;;;;;;;7.82;2.78;;;38.20;32.70;;;;;;5233672;28;20243;-45
2023/09/04 07:40:30;;;;;;;9.18;2.47;;;38.00;32.70;;;;;;5240241;28;20189;-44
2023/09/04 07:43:01;;;;;;;5.70;3.05;;;37.90;33.20;;;;;;5236513;28;20187;-46
2023/09/04 07:45:32;;;;;;;3.15;2.95;;;37.90;32.50;;;;;;5236263;28;20188;-46
2023/09/04 07:48:03;;;;;;;2.80;2.58;;;38.00;32.90;;;;;;5237019;28;20206;-48
2023/09/04 07:50:34;;;;;;;2.30;2.10;;;38.40;32.50;;;;;;5238107;28;20569;-46
2023/09/04 07:53:05;;;;;;;4.75;2.65;;;38.70;32.00;;;;;;5236681;28;20197;-47
2023/09/04 07:55:35;;;;;;;4.93;2.60;;;38.70;31.60;;;;;;5236668;28;20265;-46
2023/09/04 07:58:07;;;;;;;4.53;3.88;;;38.40;31.90;;;;;;5233899;28;20276;-45
2023/09/04 08:00:49;;;;;;;4.28;2.80;;;38.10;31.70;;;;;;5236015;28;20197;-47
2023/09/04 08:03:21;;;;;;;3.33;2.22;;;37.50;32.60;;;;;;5235294;28;20181;-45
2023/09/04 08:05:52;;;;;;;2.42;2.33;;;37.20;33.20;;;;;;5234086;28;20272;-45
2023/09/04 08:08:22;;;;;;;5.72;2.88;;;37.20;33.20;;;;;;5237480;28;20254;-47
2023/09/04 08:10:53;;;;;;;2.37;2.27;;;36.70;33.30;;;;;;5235525;28;20206;-46
2023/09/04 08:13:24;;;;;;;2.50;2.40;;;36.30;34.10;;;;;;5234664;28;20189;-46
2023/09/04 08:15:54;;;;;;;5.83;2.50;;;36.10;34.90;;;;;;5234715;28;20657;-46
2023/09/04 08:18:25;;;;;;;2.90;2.70;;;35.80;35.00;;;;;;5236127;28;20335;-48
2023/09/04 08:20:56;;;;;;;3.03;2.03;;;35.10;35.60;;;;;;5237023;28;20194;-45
2023/09/04 08:23:26;;;;;;;6.97;3.13;;;34.10;37.50;;;;;;5233195;28;20182;-47
2023/09/04 08:25:59;;;;;;;2.10;2.00;;;33.30;38.80;;;;;;5237732;28;20265;-46
2023/09/04 08:28:30;;;;;;;4.30;3.20;;;32.40;40.30;;;;;;5233869;28;20280;-48
2023/09/04 08:31:00;;;;;;;2.40;2.20;;;31.50;41.40;;;;;;5232771;28;20190;-49
2023/09/04 08:33:31;;;;;;;2.27;2.10;;;30.50;43.00;;;;;;5230133;28;20186;-46
2023/09/04 08:36:02;;;;;;;2.70;2.60;;;29.60;44.40;;;;;;5233259;28;20201;-48
2023/09/04 08:38:33;;;;;;;3.30;3.00;;;28.70;45.50;;;;;;5230427;28;20213;-47
2023/09/04 08:41:07;;;;;;;5.87;2.47;;;28.00;47.10;;;;;;5233803;28;20429;-46
2023/09/04 08:43:39;;;;;;;3.27;1.83;;;27.20;47.90;;;;;;5228393;28;20177;-46
2023/09/04 08:46:10;;;;;;;4.23;3.00;;;26.40;49.40;;;;;;5234107;28;20444;-46
2023/09/04 08:48:43;;;;;;;2.97;2.60;;;25.50;50.80;;;;;;5232674;28;20519;-46
2023/09/04 08:51:15;;;;;;;2.93;2.73;;;24.50;53.40;;;;;;5233611;28;20990;-46
2023/09/04 08:53:49;;;;;;;4.77;3.10;;;23.70;55.10;;;;;;5232451;28;20448;-45
2023/09/04 08:56:20;;;;;;;4.00;3.33;;;23.60;56.00;;;;;;5231850;28;20444;-46
2023/09/04 08:58:51;;;;;;;3.67;3.13;;;23.60;56.60;;;;;;5232008;28;20779;-46
2023/09/04 09:01:22;;;;;;;3.77;3.40;;;23.50;56.60;;;;;;5232715;28;20250;-47
2023/09/04 09:03:53;;;;;;;7.80;2.77;;;23.40;57.00;;;;;;5234053;28;20207;-46
2023/09/04 09:06:24;;;;;;;3.10;2.90;;;23.30;57.50;;;;;;5234055;28;20447;-46
2023/09/04 09:08:57;;;;;;;3.20;3.00;;;23.10;57.50;;;;;;5233098;28;20811;-46
2023/09/04 09:11:29;;;;;;;3.03;2.80;;;23.10;58.10;;;;;;5230659;28;20236;-47
2023/09/04 09:13:59;;;;;;;3.80;3.50;;;23.20;58.40;;;;;;5231416;28;20430;-46
2023/09/04 09:16:30;;;;;;;16.73;3.20;;;23.30;58.20;;;;;;5238064;28;20436;-46
2023/09/04 09:19:01;;;;;;;3.53;3.20;;;23.30;58.20;;;;;;5234118;28;20206;-46
2023/09/04 09:21:33;;;;;;;5.33;2.83;;;23.10;58.50;;;;;;5230656;28;20317;-47
2023/09/04 09:24:19;;;;;;;3.63;3.00;;;22.90;58.70;;;;;;5234690;28;20492;-45
2023/09/04 09:26:50;;;;;;;2.20;1.90;;;22.70;59.00;;;;;;5226707;28;20480;-46
2023/09/04 09:29:21;;;;;;;2.30;1.93;;;22.70;59.50;;;;;;5228901;28;20556;-45
2023/09/04 09:31:53;;;;;;;12.97;3.40;;;22.80;59.30;;;;;;5236330;28;20190;-47
2023/09/04 09:34:24;;;;;;;4.70;3.80;;;22.90;59.30;;;;;;5234453;28;20193;-46
2023/09/04 09:36:57;;;;;;;3.60;2.57;;;23.00;59.30;;;;;;5237733;28;20879;-47
2023/09/04 09:39:29;;;;;;;5.23;3.53;;;23.00;59.30;;;;;;5234022;28;20519;-46
2023/09/04 09:42:01;;;;;;;3.60;2.70;;;22.80;58.90;;;;;;5231625;28;20476;-46
2023/09/04 09:44:32;;;;;;;2.40;2.20;;;22.50;59.50;;;;;;5231121;28;20437;-46
2023/09/04 09:47:05;;;;;;;3.33;2.63;;;22.50;59.80;;;;;;5240466;28;20426;-46
2023/09/04 09:49:36;;;;;;;6.30;2.73;;;22.40;60.10;;;;;;5241045;28;20214;-46
2023/09/04 09:52:08;;;;;;;6.60;4.30;;;22.40;60.70;;;;;;5233116;28;20425;-46
2023/09/04 09:54:41;;;;;;;3.13;2.80;;;22.50;60.90;;;;;;5231985;28;20519;-48
2023/09/04 09:57:13;;;;;;;4.20;3.00;;;22.60;60.90;;;;;;5238060;28;20432;-45
2023/09/04 09:59:47;;;;;;;5.10;3.33;;;22.60;60.60;;;;;;5233300;28;20500;-45
2023/09/04 10:02:23;;;;;;;3.67;2.40;;;22.50;59.80;;;;;;5231579;28;20932;-45
2023/09/04 10:04:54;;;;;;;5.40;2.07;;;22.60;60.90;;;;;;5235292;28;20455;-46
2023/09/04 10:07:27;;;;;;;2.43;2.33;;;22.60;61.00;;;;;;5234112;28;20884;-46
2023/09/04 10:10:03;;;;;;;1.87;1.77;;;22.70;61.00;;;;;;5236258;28;20526;-46
2023/09/04 10:12:41;;;;;;;2.43;2.00;;;22.90;61.40;;;;;;5234392;28;20432;-46
2023/09/04 10:15:14;;;;;;;4.23;2.67;;;23.00;61.30;;;;;;5241282;28;20429;-46
2023/09/04 10:18:02;;;;;;;2.40;2.30;;;23.00;60.30;;;;;;5252877;28;20433;-45
2023/09/04 10:20:36;;;;;;;2.63;2.53;;;22.90;60.20;;;;;;5230212;28;20848;-46
2023/09/04 10:23:09;;;;;;;4.50;2.57;;;22.80;60.00;;;;;;5231212;28;20441;-47
2023/09/04 10:25:59;;;;;;;2.37;2.27;;;22.70;60.20;;;;;;5235294;28;20420;-46
2023/09/04 10:28:37;;;;;;;2.00;1.90;;;22.70;61.00;;;;;;5232076;28;20452;-46
2023/09/04 10:31:08;;;;;;;4.97;2.47;;;22.70;61.90;;;;;;5234253;28;20483;-48
2023/09/04 10:33:39;;;;;;;3.07;2.87;;;22.90;62.30;;;;;;5234917;28;20433;-47
2023/09/04 10:36:11;;;;;;;23.90;14.00;;;22.90;60.50;;;;;;5220970;28;20936;-44
2023/09/04 10:38:42;;;;;;;4.43;4.03;;;22.90;61.20;;;;;;5233153;28;20448;-45
2023/09/04 10:41:14;;;;;;;2.87;2.40;;;23.10;60.70;;;;;;5232105;28;20460;-46
2023/09/04 10:43:45;;;;;;;2.67;2.30;;;23.10;60.70;;;;;;5232179;28;20802;-45
2023/09/04 10:46:16;;;;;;;2.50;2.40;;;23.30;60.00;;;;;;5234201;28;20442;-45
2023/09/04 10:48:51;;;;;;;4.70;2.30;;;23.30;60.20;;;;;;5232954;28;20198;-46
2023/09/04 10:51:37;;;;;;;2.17;2.03;;;23.20;60.00;;;;;;5230639;28;20429;-45
2023/09/04 10:54:14;;;;;;;2.30;2.10;;;22.90;59.10;;;;;;5232814;28;20769;-46
2023/09/04 10:56:56;;;;;;;2.57;2.30;;;22.70;60.10;;;;;;5230119;28;20448;-46
2023/09/04 10:59:28;;;;;;;1.87;1.77;;;22.60;60.80;;;;;;5231257;28;20947;-46
2023/09/04 11:02:18;;;;;;;1.50;1.40;;;22.60;61.60;;;;;;5236026;28;20432;-45
2023/09/04 11:04:51;;;;;;;2.40;2.30;;;22.70;61.80;;;;;;5235040;28;20444;-45
2023/09/04 11:07:22;;;;;;;7.47;2.13;;;22.80;61.30;;;;;;5234948;28;20440;-46
2023/09/04 11:10:00;;;;;;;4.23;3.23;;;22.90;61.80;;;;;;5235241;28;20465;-46
2023/09/04 11:12:35;;;;;;;2.53;1.67;;;23.00;61.70;;;;;;5235912;28;20278;-44
2023/09/04 11:15:16;;;;;;;1.50;1.50;;;23.10;61.70;;;;;;5233688;28;20718;-46
2023/09/04 11:17:50;;;;;;;2.63;1.90;;;23.20;61.20;;;;;;5238056;28;20499;-47
2023/09/04 11:20:26;;;;;;;6.83;2.03;;;23.30;61.00;;;;;;5236654;28;20868;-46
2023/09/04 11:22:57;;;;;;;2.87;2.67;;;23.40;60.70;;;;;;5239553;28;20423;-46
2023/09/04 11:25:28;;;;;;;3.43;3.10;;;23.40;60.50;;;;;;5233810;28;20431;-45
2023/09/04 11:27:59;;;;;;;2.17;1.60;;;23.40;60.40;;;;;;5233173;28;20266;-45
2023/09/04 11:30:30;;;;;;;3.03;2.57;;;23.40;60.30;;;;;;5233735;28;20221;-44
2023/09/04 11:33:01;;;;;;;3.50;2.90;;;23.40;60.30;;;;;;5233727;28;20198;-45
2023/09/04 11:35:32;;;;;;;2.00;1.70;;;23.50;59.70;;;;;;5234544;28;20690;-45
2023/09/04 11:38:25;;;;;;;3.80;3.50;;;23.40;59.70;;;;;;5237936;28;20448;-44
2023/09/04 11:40:56;;;;;;;9.13;4.33;;;23.40;59.10;;;;;;5236520;28;22078;-43
2023/09/04 11:43:28;;;;;;;2.97;2.30;;;23.40;59.40;;;;;;5232311;28;20778;-44
2023/09/04 11:45:59;;;;;;;2.17;1.97;;;23.40;59.20;;;;;;5240689;28;21003;-45
2023/09/04 11:48:30;;;;;;;2.00;1.90;;;23.50;59.40;;;;;;5242062;28;20552;-43
2023/09/04 11:51:01;;;;;;;3.13;2.30;;;23.60;58.90;;;;;;5239436;28;20605;-44
2023/09/04 11:53:31;;;;;;;2.30;2.10;;;23.70;58.80;;;;;;5243390;28;20201;-44
2023/09/04 11:56:03;;;;;;;1.50;1.50;;;23.60;58.70;;;;;;5236014;28;20194;-44
2023/09/04 11:58:34;;;;;;;2.30;2.20;;;23.50;58.70;;;;;;5239763;28;20214;-44
2023/09/04 12:01:04;;;;;;;1.87;1.77;;;23.50;58.80;;;;;;5239450;28;20441;-44
2023/09/04 12:03:35;;;;;;;2.13;1.93;;;23.50;59.20;;;;;;5237443;28;20824;-43
2023/09/04 12:06:06;;;;;;;2.30;2.20;;;23.70;59.00;;;;;;5238789;28;20186;-43
2023/09/04 12:08:37;;;;;;;2.53;2.37;;;23.90;58.70;;;;;;5236520;28;20289;-46
2023/09/04 12:11:07;;;;;;;1.70;1.70;;;24.00;58.20;;;;;;5237611;28;20538;-46
2023/09/04 12:13:38;;;;;;;2.73;2.40;;;24.10;57.90;;;;;;5239465;28;20175;-46
2023/09/04 12:16:10;;;;;;;2.90;2.70;;;24.20;58.00;;;;;;5236612;28;20217;-46
2023/09/04 12:18:41;;;;;;;2.93;2.70;;;24.30;57.60;;;;;;5237033;28;20213;-45
2023/09/04 12:21:11;;;;;;;4.03;2.00;;;24.30;57.20;;;;;;5229933;28;20443;-44
2023/09/04 12:23:46;;;;;;;2.20;2.03;;;24.40;57.00;;;;;;5237646;28;20452;-46
2023/09/04 12:26:17;;;;;;;2.27;2.10;;;24.40;56.70;;;;;;5240581;28;20190;-45
2023/09/04 12:28:47;;;;;;;5.50;2.70;;;24.30;57.10;;;;;;5237035;28;20977;-52
2023/09/04 12:31:22;;;;;;;2.43;2.33;;;24.20;57.10;;;;;;5235150;28;20517;-46
2023/09/04 12:33:56;;;;;;;5.07;2.10;;;24.10;57.00;;;;;;5234889;28;20174;-45
2023/09/04 12:36:29;;;;;;;2.40;2.27;;;24.10;56.80;;;;;;5236272;28;20465;-45
2023/09/04 12:39:00;;;;;;;2.10;2.00;;;23.90;56.90;;;;;;5230565;28;20817;-45
2023/09/04 12:41:31;;;;;;;9.37;3.13;;;23.90;57.20;;;;;;5232527;28;20420;-46
2023/09/04 12:44:03;;;;;;;6.47;3.03;;;23.90;57.20;;;;;;5232732;28;20182;-46
2023/09/04 12:46:34;;;;;;;6.30;3.70;;;23.90;57.10;;;;;;5243142;28;20440;-48
2023/09/04 12:49:05;;;;;;;4.10;2.90;;;23.90;57.00;;;;;;5237323;28;21169;-46
2023/09/04 12:51:36;;;;;;;3.17;2.60;;;23.90;57.70;;;;;;5228981;28;20616;-45
2023/09/04 12:54:06;;;;;;;3.27;1.80;;;23.90;57.50;;;;;;5228343;28;20203;-45
2023/09/04 12:56:38;;;;;;;2.63;1.80;;;24.00;57.80;;;;;;5240692;28;20175;-46
2023/09/04 12:59:08;;;;;;;2.70;1.90;;;24.10;57.90;;;;;;5232023;28;20221;-45
2023/09/04 13:01:39;;;;;;;2.30;2.13;;;24.30;58.00;;;;;;5232149;28;20440;-46
2023/09/04 13:04:10;;;;;;;2.57;2.40;;;24.50;56.60;;;;;;5233433;28;20183;-45
2023/09/04 13:06:40;;;;;;;2.20;2.10;;;24.60;56.40;;;;;;5233434;28;20590;-45
2023/09/04 13:09:11;;;;;;;2.97;2.77;;;24.60;56.20;;;;;;5235995;28;20210;-45